sensor_id;sensor_type;location;lat;lon;timestamp;P1;durP1;ratioP1;P2;durP2;ratioP2
63087;SDS011;49173;43.164;27.786;2022-09-09T00:06:25;4.30;;;1.90;;
63087;SDS011;49173;43.164;27.786;2022-09-09T00:11:29;3.95;;;1.88;;
63087;SDS011;49173;43.164;27.786;2022-09-09T00:14:03;2.67;;;1.70;;
63087;SDS011;49173;43.164;27.786;2022-09-09T00:16:34;4.30;;;1.95;;
63087;SDS011;49173;43.164;27.786;2022-09-09T00:19:15;3.60;;;1.73;;
63087;SDS011;49173;43.164;27.786;2022-09-09T00:24:42;2.95;;;1.70;;
63087;SDS011;49173;43.164;27.786;2022-09-09T00:27:18;5.28;;;1.80;;
63087;SDS011;49173;43.164;27.786;2022-09-09T00:32:45;3.97;;;1.58;;
63087;SDS011;49173;43.164;27.786;2022-09-09T00:35:17;2.60;;;1.60;;
63087;SDS011;49173;43.164;27.786;2022-09-09T00:37:44;4.88;;;1.70;;
63087;SDS011;49173;43.164;27.786;2022-09-09T00:40:33;2.55;;;1.50;;
63087;SDS011;49173;43.164;27.786;2022-09-09T00:56:52;2.90;;;1.60;;
63087;SDS011;49173;43.164;27.786;2022-09-09T00:59:48;6.68;;;1.67;;
63087;SDS011;49173;43.164;27.786;2022-09-09T01:05:34;3.35;;;1.80;;
63087;SDS011;49173;43.164;27.786;2022-09-09T01:08:05;2.85;;;1.50;;
63087;SDS011;49173;43.164;27.786;2022-09-09T01:15:59;5.80;;;1.70;;
63087;SDS011;49173;43.164;27.786;2022-09-09T01:18:29;4.45;;;1.80;;
63087;SDS011;49173;43.164;27.786;2022-09-09T01:21:13;3.55;;;1.70;;
63087;SDS011;49173;43.164;27.786;2022-09-09T01:29:08;3.97;;;1.50;;
63087;SDS011;49173;43.164;27.786;2022-09-09T01:31:41;3.42;;;1.58;;
63087;SDS011;49173;43.164;27.786;2022-09-09T01:34:17;2.85;;;1.60;;
63087;SDS011;49173;43.164;27.786;2022-09-09T01:36:48;6.72;;;1.73;;
63087;SDS011;49173;43.164;27.786;2022-09-09T01:39:18;3.42;;;1.77;;
63087;SDS011;49173;43.164;27.786;2022-09-09T01:41:45;3.17;;;1.75;;
63087;SDS011;49173;43.164;27.786;2022-09-09T01:44:11;4.38;;;1.70;;
63087;SDS011;49173;43.164;27.786;2022-09-09T01:46:37;3.72;;;1.77;;
63087;SDS011;49173;43.164;27.786;2022-09-09T01:49:05;3.35;;;1.67;;
63087;SDS011;49173;43.164;27.786;2022-09-09T01:51:33;6.38;;;1.90;;
63087;SDS011;49173;43.164;27.786;2022-09-09T01:54:01;3.47;;;1.67;;
63087;SDS011;49173;43.164;27.786;2022-09-09T01:56:31;4.28;;;1.70;;
63087;SDS011;49173;43.164;27.786;2022-09-09T02:07:37;3.42;;;1.83;;
63087;SDS011;49173;43.164;27.786;2022-09-09T02:10:16;5.22;;;1.70;;
63087;SDS011;49173;43.164;27.786;2022-09-09T02:12:47;5.95;;;1.90;;
63087;SDS011;49173;43.164;27.786;2022-09-09T02:15:30;9.07;;;2.38;;
63087;SDS011;49173;43.164;27.786;2022-09-09T02:20:48;5.18;;;1.83;;
63087;SDS011;49173;43.164;27.786;2022-09-09T02:23:16;4.80;;;2.00;;
63087;SDS011;49173;43.164;27.786;2022-09-09T02:25:43;3.50;;;1.60;;
63087;SDS011;49173;43.164;27.786;2022-09-09T02:28:11;4.05;;;1.70;;
63087;SDS011;49173;43.164;27.786;2022-09-09T02:30:40;3.22;;;1.55;;
63087;SDS011;49173;43.164;27.786;2022-09-09T02:33:09;4.45;;;1.80;;
63087;SDS011;49173;43.164;27.786;2022-09-09T02:35:38;2.80;;;1.67;;
63087;SDS011;49173;43.164;27.786;2022-09-09T02:38:08;3.42;;;1.73;;
63087;SDS011;49173;43.164;27.786;2022-09-09T02:40:37;6.18;;;1.63;;
63087;SDS011;49173;43.164;27.786;2022-09-09T02:43:03;3.38;;;1.70;;
63087;SDS011;49173;43.164;27.786;2022-09-09T02:45:43;4.80;;;1.92;;
63087;SDS011;49173;43.164;27.786;2022-09-09T02:48:21;4.53;;;1.70;;
63087;SDS011;49173;43.164;27.786;2022-09-09T02:50:59;4.82;;;2.08;;
63087;SDS011;49173;43.164;27.786;2022-09-09T02:56:21;8.77;;;1.80;;
63087;SDS011;49173;43.164;27.786;2022-09-09T02:58:50;5.28;;;1.65;;
63087;SDS011;49173;43.164;27.786;2022-09-09T03:01:17;4.45;;;2.35;;
63087;SDS011;49173;43.164;27.786;2022-09-09T03:03:43;3.15;;;1.70;;
63087;SDS011;49173;43.164;27.786;2022-09-09T03:06:09;2.47;;;1.60;;
63087;SDS011;49173;43.164;27.786;2022-09-09T03:08:37;4.57;;;1.55;;
63087;SDS011;49173;43.164;27.786;2022-09-09T03:11:03;3.55;;;1.90;;
63087;SDS011;49173;43.164;27.786;2022-09-09T03:13:29;5.70;;;1.75;;
63087;SDS011;49173;43.164;27.786;2022-09-09T03:15:57;4.35;;;1.70;;
63087;SDS011;49173;43.164;27.786;2022-09-09T03:18:31;2.55;;;1.70;;
63087;SDS011;49173;43.164;27.786;2022-09-09T03:20:57;2.67;;;1.67;;
63087;SDS011;49173;43.164;27.786;2022-09-09T03:23:24;2.58;;;1.60;;
63087;SDS011;49173;43.164;27.786;2022-09-09T03:25:50;4.90;;;1.52;;
63087;SDS011;49173;43.164;27.786;2022-09-09T03:28:17;6.20;;;1.80;;
63087;SDS011;49173;43.164;27.786;2022-09-09T03:30:43;4.35;;;1.83;;
63087;SDS011;49173;43.164;27.786;2022-09-09T03:33:09;4.30;;;1.92;;
63087;SDS011;49173;43.164;27.786;2022-09-09T03:35:35;3.95;;;1.90;;
63087;SDS011;49173;43.164;27.786;2022-09-09T03:38:01;3.47;;;2.00;;
63087;SDS011;49173;43.164;27.786;2022-09-09T03:40:27;5.70;;;2.03;;
63087;SDS011;49173;43.164;27.786;2022-09-09T03:42:52;5.18;;;1.83;;
63087;SDS011;49173;43.164;27.786;2022-09-09T03:45:18;4.15;;;1.90;;
63087;SDS011;49173;43.164;27.786;2022-09-09T03:47:44;3.42;;;2.17;;
63087;SDS011;49173;43.164;27.786;2022-09-09T03:50:09;4.40;;;1.98;;
63087;SDS011;49173;43.164;27.786;2022-09-09T03:52:37;3.13;;;1.90;;
63087;SDS011;49173;43.164;27.786;2022-09-09T03:55:04;2.75;;;1.70;;
63087;SDS011;49173;43.164;27.786;2022-09-09T03:57:31;3.33;;;1.80;;
63087;SDS011;49173;43.164;27.786;2022-09-09T03:59:57;4.75;;;1.90;;
63087;SDS011;49173;43.164;27.786;2022-09-09T04:02:26;3.65;;;1.80;;
63087;SDS011;49173;43.164;27.786;2022-09-09T04:04:51;6.00;;;1.85;;
63087;SDS011;49173;43.164;27.786;2022-09-09T04:07:17;12.95;;;5.22;;
63087;SDS011;49173;43.164;27.786;2022-09-09T04:09:43;57.50;;;27.27;;
63087;SDS011;49173;43.164;27.786;2022-09-09T04:12:09;162.50;;;76.45;;
63087;SDS011;49173;43.164;27.786;2022-09-09T04:14:38;249.15;;;116.63;;
63087;SDS011;49173;43.164;27.786;2022-09-09T04:17:04;265.15;;;116.70;;
63087;SDS011;49173;43.164;27.786;2022-09-09T04:19:31;215.00;;;97.75;;
63087;SDS011;49173;43.164;27.786;2022-09-09T04:21:57;169.07;;;75.00;;
63087;SDS011;49173;43.164;27.786;2022-09-09T04:24:24;133.43;;;64.80;;
63087;SDS011;49173;43.164;27.786;2022-09-09T04:26:52;102.75;;;49.65;;
63087;SDS011;49173;43.164;27.786;2022-09-09T04:29:18;138.95;;;55.10;;
63087;SDS011;49173;43.164;27.786;2022-09-09T04:31:44;147.02;;;67.28;;
63087;SDS011;49173;43.164;27.786;2022-09-09T04:34:09;146.05;;;66.30;;
63087;SDS011;49173;43.164;27.786;2022-09-09T04:36:35;134.32;;;61.00;;
63087;SDS011;49173;43.164;27.786;2022-09-09T04:39:01;129.63;;;59.78;;
63087;SDS011;49173;43.164;27.786;2022-09-09T04:41:27;99.82;;;45.38;;
63087;SDS011;49173;43.164;27.786;2022-09-09T04:43:53;81.00;;;37.25;;
63087;SDS011;49173;43.164;27.786;2022-09-09T04:46:20;54.80;;;28.67;;
63087;SDS011;49173;43.164;27.786;2022-09-09T04:48:48;47.58;;;23.23;;
63087;SDS011;49173;43.164;27.786;2022-09-09T04:51:16;39.53;;;19.60;;
63087;SDS011;49173;43.164;27.786;2022-09-09T04:53:42;28.17;;;15.00;;
63087;SDS011;49173;43.164;27.786;2022-09-09T04:56:08;39.97;;;23.13;;
63087;SDS011;49173;43.164;27.786;2022-09-09T04:58:36;64.57;;;37.53;;
63087;SDS011;49173;43.164;27.786;2022-09-09T05:01:06;98.90;;;54.65;;
63087;SDS011;49173;43.164;27.786;2022-09-09T05:03:36;68.28;;;35.28;;
63087;SDS011;49173;43.164;27.786;2022-09-09T05:06:06;55.58;;;28.80;;
63087;SDS011;49173;43.164;27.786;2022-09-09T05:08:37;43.45;;;19.45;;
63087;SDS011;49173;43.164;27.786;2022-09-09T05:11:17;27.35;;;12.65;;
63087;SDS011;49173;43.164;27.786;2022-09-09T05:13:45;39.50;;;19.30;;
63087;SDS011;49173;43.164;27.786;2022-09-09T05:16:14;25.90;;;15.88;;
63087;SDS011;49173;43.164;27.786;2022-09-09T05:18:42;27.63;;;13.32;;
63087;SDS011;49173;43.164;27.786;2022-09-09T05:21:09;17.85;;;8.68;;
63087;SDS011;49173;43.164;27.786;2022-09-09T05:23:36;10.65;;;5.60;;
63087;SDS011;49173;43.164;27.786;2022-09-09T05:26:02;11.70;;;4.85;;
63087;SDS011;49173;43.164;27.786;2022-09-09T05:28:29;12.23;;;5.65;;
63087;SDS011;49173;43.164;27.786;2022-09-09T05:31:02;6.43;;;3.67;;
63087;SDS011;49173;43.164;27.786;2022-09-09T05:33:30;5.75;;;2.08;;
63087;SDS011;49173;43.164;27.786;2022-09-09T05:35:58;7.45;;;3.60;;
63087;SDS011;49173;43.164;27.786;2022-09-09T05:40:52;8.63;;;3.60;;
63087;SDS011;49173;43.164;27.786;2022-09-09T05:43:19;7.68;;;4.38;;
63087;SDS011;49173;43.164;27.786;2022-09-09T05:45:46;6.63;;;2.80;;
63087;SDS011;49173;43.164;27.786;2022-09-09T05:48:15;5.03;;;2.10;;
63087;SDS011;49173;43.164;27.786;2022-09-09T05:50:42;3.67;;;2.10;;
63087;SDS011;49173;43.164;27.786;2022-09-09T05:53:08;5.50;;;2.05;;
63087;SDS011;49173;43.164;27.786;2022-09-09T05:55:35;4.18;;;1.90;;
63087;SDS011;49173;43.164;27.786;2022-09-09T05:58:02;4.78;;;1.30;;
63087;SDS011;49173;43.164;27.786;2022-09-09T06:00:27;21.52;;;12.27;;
63087;SDS011;49173;43.164;27.786;2022-09-09T06:02:56;9.00;;;4.38;;
63087;SDS011;49173;43.164;27.786;2022-09-09T06:05:22;4.22;;;2.60;;
63087;SDS011;49173;43.164;27.786;2022-09-09T06:07:51;6.82;;;2.38;;
63087;SDS011;49173;43.164;27.786;2022-09-09T06:10:18;7.60;;;1.80;;
63087;SDS011;49173;43.164;27.786;2022-09-09T06:12:44;7.80;;;3.17;;
63087;SDS011;49173;43.164;27.786;2022-09-09T06:15:12;10.48;;;5.00;;
63087;SDS011;49173;43.164;27.786;2022-09-09T06:17:40;7.72;;;2.38;;
63087;SDS011;49173;43.164;27.786;2022-09-09T06:20:07;33.70;;;14.20;;
63087;SDS011;49173;43.164;27.786;2022-09-09T06:22:34;6.05;;;3.53;;
63087;SDS011;49173;43.164;27.786;2022-09-09T06:25:00;16.35;;;9.85;;
63087;SDS011;49173;43.164;27.786;2022-09-09T06:27:27;10.32;;;4.97;;
63087;SDS011;49173;43.164;27.786;2022-09-09T06:29:53;9.35;;;3.33;;
63087;SDS011;49173;43.164;27.786;2022-09-09T06:32:19;7.45;;;3.88;;
63087;SDS011;49173;43.164;27.786;2022-09-09T06:34:47;11.77;;;3.50;;
63087;SDS011;49173;43.164;27.786;2022-09-09T06:37:14;5.70;;;2.67;;
63087;SDS011;49173;43.164;27.786;2022-09-09T06:39:41;6.30;;;2.65;;
63087;SDS011;49173;43.164;27.786;2022-09-09T06:42:06;5.25;;;2.42;;
63087;SDS011;49173;43.164;27.786;2022-09-09T06:44:33;4.60;;;2.03;;
63087;SDS011;49173;43.164;27.786;2022-09-09T06:46:59;3.80;;;1.70;;
63087;SDS011;49173;43.164;27.786;2022-09-09T06:49:25;3.72;;;1.80;;
63087;SDS011;49173;43.164;27.786;2022-09-09T06:51:52;4.22;;;2.15;;
63087;SDS011;49173;43.164;27.786;2022-09-09T06:54:18;3.80;;;1.30;;
63087;SDS011;49173;43.164;27.786;2022-09-09T06:56:45;8.27;;;1.30;;
63087;SDS011;49173;43.164;27.786;2022-09-09T06:59:11;4.00;;;1.13;;
63087;SDS011;49173;43.164;27.786;2022-09-09T07:01:41;2.53;;;1.08;;
63087;SDS011;49173;43.164;27.786;2022-09-09T07:04:12;2.35;;;0.90;;
63087;SDS011;49173;43.164;27.786;2022-09-09T07:06:42;1.80;;;1.00;;
63087;SDS011;49173;43.164;27.786;2022-09-09T07:09:13;2.55;;;1.00;;
63087;SDS011;49173;43.164;27.786;2022-09-09T07:11:42;4.32;;;1.20;;
63087;SDS011;49173;43.164;27.786;2022-09-09T07:14:12;3.50;;;1.55;;
63087;SDS011;49173;43.164;27.786;2022-09-09T07:16:39;2.60;;;1.30;;
63087;SDS011;49173;43.164;27.786;2022-09-09T07:19:07;3.38;;;1.30;;
63087;SDS011;49173;43.164;27.786;2022-09-09T07:21:33;3.13;;;1.10;;
63087;SDS011;49173;43.164;27.786;2022-09-09T07:23:59;2.35;;;1.20;;
63087;SDS011;49173;43.164;27.786;2022-09-09T07:26:28;6.20;;;1.55;;
63087;SDS011;49173;43.164;27.786;2022-09-09T07:28:56;4.82;;;2.83;;
63087;SDS011;49173;43.164;27.786;2022-09-09T07:31:27;3.50;;;1.50;;
63087;SDS011;49173;43.164;27.786;2022-09-09T07:33:57;2.90;;;1.27;;
63087;SDS011;49173;43.164;27.786;2022-09-09T07:36:26;2.10;;;0.98;;
63087;SDS011;49173;43.164;27.786;2022-09-09T07:38:55;4.30;;;1.35;;
63087;SDS011;49173;43.164;27.786;2022-09-09T07:41:24;4.00;;;1.30;;
63087;SDS011;49173;43.164;27.786;2022-09-09T07:43:52;3.25;;;1.20;;
63087;SDS011;49173;43.164;27.786;2022-09-09T07:46:22;2.90;;;1.15;;
63087;SDS011;49173;43.164;27.786;2022-09-09T07:48:51;11.02;;;1.23;;
63087;SDS011;49173;43.164;27.786;2022-09-09T07:51:28;13.90;;;2.05;;
63087;SDS011;49173;43.164;27.786;2022-09-09T07:53:56;10.57;;;1.65;;
63087;SDS011;49173;43.164;27.786;2022-09-09T07:56:24;17.38;;;2.58;;
63087;SDS011;49173;43.164;27.786;2022-09-09T07:58:52;5.78;;;1.23;;
63087;SDS011;49173;43.164;27.786;2022-09-09T08:01:27;4.13;;;1.20;;
63087;SDS011;49173;43.164;27.786;2022-09-09T08:03:56;5.30;;;1.27;;
63087;SDS011;49173;43.164;27.786;2022-09-09T08:06:25;2.95;;;1.20;;
63087;SDS011;49173;43.164;27.786;2022-09-09T08:08:52;3.10;;;1.10;;
63087;SDS011;49173;43.164;27.786;2022-09-09T08:11:20;6.78;;;1.20;;
63087;SDS011;49173;43.164;27.786;2022-09-09T08:13:48;3.55;;;1.25;;
63087;SDS011;49173;43.164;27.786;2022-09-09T08:16:22;3.25;;;0.90;;
63087;SDS011;49173;43.164;27.786;2022-09-09T08:18:50;5.70;;;1.00;;
63087;SDS011;49173;43.164;27.786;2022-09-09T08:21:18;3.35;;;1.10;;
63087;SDS011;49173;43.164;27.786;2022-09-09T08:23:47;3.78;;;1.05;;
63087;SDS011;49173;43.164;27.786;2022-09-09T08:26:19;5.87;;;1.20;;
63087;SDS011;49173;43.164;27.786;2022-09-09T08:28:53;4.72;;;1.08;;
63087;SDS011;49173;43.164;27.786;2022-09-09T08:31:28;3.92;;;1.30;;
63087;SDS011;49173;43.164;27.786;2022-09-09T08:33:56;3.20;;;1.30;;
63087;SDS011;49173;43.164;27.786;2022-09-09T08:36:25;4.07;;;1.35;;
63087;SDS011;49173;43.164;27.786;2022-09-09T08:38:53;3.77;;;1.20;;
63087;SDS011;49173;43.164;27.786;2022-09-09T08:47:27;26.38;;;2.05;;
63087;SDS011;49173;43.164;27.786;2022-09-09T08:50:13;9.75;;;1.30;;
63087;SDS011;49173;43.164;27.786;2022-09-09T08:55:41;3.60;;;1.10;;
63087;SDS011;49173;43.164;27.786;2022-09-09T08:58:24;3.45;;;1.17;;
63087;SDS011;49173;43.164;27.786;2022-09-09T09:03:37;4.35;;;1.98;;
63087;SDS011;49173;43.164;27.786;2022-09-09T09:11:37;5.47;;;1.30;;
63087;SDS011;49173;43.164;27.786;2022-09-09T09:14:09;5.07;;;1.40;;
63087;SDS011;49173;43.164;27.786;2022-09-09T09:19:13;6.10;;;1.30;;
63087;SDS011;49173;43.164;27.786;2022-09-09T09:21:45;6.35;;;1.52;;
63087;SDS011;49173;43.164;27.786;2022-09-09T09:24:18;3.70;;;1.40;;
63087;SDS011;49173;43.164;27.786;2022-09-09T09:26:46;4.97;;;1.38;;
63087;SDS011;49173;43.164;27.786;2022-09-09T09:29:18;4.13;;;1.10;;
63087;SDS011;49173;43.164;27.786;2022-09-09T09:31:53;5.10;;;1.10;;
63087;SDS011;49173;43.164;27.786;2022-09-09T09:34:23;2.20;;;1.00;;
63087;SDS011;49173;43.164;27.786;2022-09-09T09:39:30;5.07;;;1.17;;
63087;SDS011;49173;43.164;27.786;2022-09-09T09:42:09;2.00;;;0.98;;
63087;SDS011;49173;43.164;27.786;2022-09-09T09:44:40;2.38;;;1.02;;
63087;SDS011;49173;43.164;27.786;2022-09-09T09:47:08;3.15;;;1.08;;
63087;SDS011;49173;43.164;27.786;2022-09-09T09:49:38;5.57;;;1.17;;
63087;SDS011;49173;43.164;27.786;2022-09-09T09:52:05;4.28;;;1.00;;
63087;SDS011;49173;43.164;27.786;2022-09-09T09:54:34;8.45;;;1.55;;
63087;SDS011;49173;43.164;27.786;2022-09-09T09:57:16;8.00;;;1.20;;
63087;SDS011;49173;43.164;27.786;2022-09-09T09:59:43;7.00;;;1.45;;
63087;SDS011;49173;43.164;27.786;2022-09-09T10:02:24;3.65;;;1.50;;
63087;SDS011;49173;43.164;27.786;2022-09-09T10:05:35;4.72;;;1.20;;
63087;SDS011;49173;43.164;27.786;2022-09-09T10:07:45;4.47;;;2.17;;
63087;SDS011;49173;43.164;27.786;2022-09-09T10:10:15;3.25;;;1.10;;
63087;SDS011;49173;43.164;27.786;2022-09-09T10:18:58;4.70;;;1.10;;
63087;SDS011;49173;43.164;27.786;2022-09-09T10:24:33;6.38;;;1.15;;
63087;SDS011;49173;43.164;27.786;2022-09-09T10:30:17;4.88;;;1.25;;
63087;SDS011;49173;43.164;27.786;2022-09-09T10:32:49;5.03;;;1.23;;
63087;SDS011;49173;43.164;27.786;2022-09-09T10:38:34;3.88;;;1.20;;
63087;SDS011;49173;43.164;27.786;2022-09-09T10:43:50;4.15;;;1.30;;
63087;SDS011;49173;43.164;27.786;2022-09-09T10:46:44;19.85;;;8.07;;
63087;SDS011;49173;43.164;27.786;2022-09-09T11:00:20;3.65;;;1.10;;
63087;SDS011;49173;43.164;27.786;2022-09-09T11:02:48;4.55;;;1.20;;
63087;SDS011;49173;43.164;27.786;2022-09-09T11:08:20;6.00;;;1.10;;
63087;SDS011;49173;43.164;27.786;2022-09-09T11:16:42;7.30;;;1.40;;
63087;SDS011;49173;43.164;27.786;2022-09-09T11:19:29;3.05;;;0.90;;
63087;SDS011;49173;43.164;27.786;2022-09-09T11:31:08;2.33;;;1.05;;
63087;SDS011;49173;43.164;27.786;2022-09-09T11:33:55;3.97;;;1.30;;
63087;SDS011;49173;43.164;27.786;2022-09-09T11:42:18;6.15;;;1.23;;
63087;SDS011;49173;43.164;27.786;2022-09-09T11:44:46;3.30;;;1.20;;
63087;SDS011;49173;43.164;27.786;2022-09-09T11:47:20;2.88;;;1.15;;
63087;SDS011;49173;43.164;27.786;2022-09-09T11:52:41;2.63;;;1.08;;
63087;SDS011;49173;43.164;27.786;2022-09-09T11:55:20;4.18;;;1.13;;
63087;SDS011;49173;43.164;27.786;2022-09-09T11:58:01;5.18;;;1.25;;
63087;SDS011;49173;43.164;27.786;2022-09-09T12:00:31;6.53;;;1.00;;
63087;SDS011;49173;43.164;27.786;2022-09-09T12:03:02;2.60;;;1.00;;
63087;SDS011;49173;43.164;27.786;2022-09-09T12:05:48;2.45;;;1.08;;
63087;SDS011;49173;43.164;27.786;2022-09-09T12:08:17;4.50;;;1.20;;
63087;SDS011;49173;43.164;27.786;2022-09-09T12:10:58;2.70;;;1.10;;
63087;SDS011;49173;43.164;27.786;2022-09-09T12:13:29;4.93;;;0.95;;
63087;SDS011;49173;43.164;27.786;2022-09-09T12:16:27;2.85;;;1.00;;
63087;SDS011;49173;43.164;27.786;2022-09-09T12:19:04;4.85;;;1.10;;
63087;SDS011;49173;43.164;27.786;2022-09-09T12:22:35;3.67;;;0.98;;
63087;SDS011;49173;43.164;27.786;2022-09-09T12:24:43;3.33;;;1.20;;
63087;SDS011;49173;43.164;27.786;2022-09-09T12:30:03;5.78;;;1.17;;
63087;SDS011;49173;43.164;27.786;2022-09-09T12:32:35;4.32;;;1.23;;
63087;SDS011;49173;43.164;27.786;2022-09-09T12:35:09;6.65;;;1.00;;
63087;SDS011;49173;43.164;27.786;2022-09-09T12:37:49;3.97;;;1.20;;
63087;SDS011;49173;43.164;27.786;2022-09-09T12:40:26;5.65;;;1.30;;
63087;SDS011;49173;43.164;27.786;2022-09-09T12:42:53;4.32;;;0.93;;
63087;SDS011;49173;43.164;27.786;2022-09-09T12:45:25;5.43;;;1.20;;
63087;SDS011;49173;43.164;27.786;2022-09-09T12:50:38;3.57;;;1.07;;
63087;SDS011;49173;43.164;27.786;2022-09-09T12:53:18;2.78;;;0.90;;
63087;SDS011;49173;43.164;27.786;2022-09-09T12:56:00;2.20;;;1.00;;
63087;SDS011;49173;43.164;27.786;2022-09-09T12:58:38;3.00;;;1.00;;
63087;SDS011;49173;43.164;27.786;2022-09-09T13:01:05;11.35;;;1.38;;
63087;SDS011;49173;43.164;27.786;2022-09-09T13:03:44;2.17;;;1.02;;
63087;SDS011;49173;43.164;27.786;2022-09-09T13:06:12;5.50;;;1.20;;
63087;SDS011;49173;43.164;27.786;2022-09-09T13:08:43;2.28;;;1.00;;
63087;SDS011;49173;43.164;27.786;2022-09-09T13:11:16;4.50;;;1.08;;
63087;SDS011;49173;43.164;27.786;2022-09-09T13:13:54;2.85;;;1.30;;
63087;SDS011;49173;43.164;27.786;2022-09-09T13:16:33;2.70;;;1.20;;
63087;SDS011;49173;43.164;27.786;2022-09-09T13:21:54;3.58;;;1.10;;
63087;SDS011;49173;43.164;27.786;2022-09-09T13:26:54;3.72;;;1.25;;
63087;SDS011;49173;43.164;27.786;2022-09-09T13:29:26;2.00;;;0.93;;
63087;SDS011;49173;43.164;27.786;2022-09-09T13:31:52;1.65;;;1.00;;
63087;SDS011;49173;43.164;27.786;2022-09-09T13:34:37;3.15;;;1.13;;
63087;SDS011;49173;43.164;27.786;2022-09-09T13:37:06;3.42;;;1.20;;
63087;SDS011;49173;43.164;27.786;2022-09-09T13:39:50;2.55;;;1.02;;
63087;SDS011;49173;43.164;27.786;2022-09-09T13:42:22;6.18;;;1.35;;
63087;SDS011;49173;43.164;27.786;2022-09-09T13:44:51;2.40;;;1.30;;
63087;SDS011;49173;43.164;27.786;2022-09-09T13:47:18;3.72;;;1.00;;
63087;SDS011;49173;43.164;27.786;2022-09-09T13:49:46;2.72;;;1.00;;
63087;SDS011;49173;43.164;27.786;2022-09-09T13:52:13;2.33;;;1.10;;
63087;SDS011;49173;43.164;27.786;2022-09-09T13:54:42;2.58;;;1.25;;
63087;SDS011;49173;43.164;27.786;2022-09-09T13:57:16;4.18;;;1.30;;
63087;SDS011;49173;43.164;27.786;2022-09-09T13:59:44;3.92;;;1.15;;
63087;SDS011;49173;43.164;27.786;2022-09-09T14:02:11;2.42;;;1.15;;
63087;SDS011;49173;43.164;27.786;2022-09-09T14:04:37;5.57;;;1.40;;
63087;SDS011;49173;43.164;27.786;2022-09-09T14:07:02;2.80;;;1.30;;
63087;SDS011;49173;43.164;27.786;2022-09-09T14:09:28;3.75;;;1.27;;
63087;SDS011;49173;43.164;27.786;2022-09-09T14:11:54;3.75;;;1.13;;
63087;SDS011;49173;43.164;27.786;2022-09-09T14:14:20;3.15;;;1.63;;
63087;SDS011;49173;43.164;27.786;2022-09-09T14:16:46;7.18;;;1.75;;
63087;SDS011;49173;43.164;27.786;2022-09-09T14:19:12;4.47;;;1.60;;
63087;SDS011;49173;43.164;27.786;2022-09-09T14:21:38;5.68;;;1.95;;
63087;SDS011;49173;43.164;27.786;2022-09-09T14:24:04;3.90;;;1.70;;
63087;SDS011;49173;43.164;27.786;2022-09-09T14:26:31;8.18;;;1.88;;
63087;SDS011;49173;43.164;27.786;2022-09-09T14:28:58;6.60;;;1.90;;
63087;SDS011;49173;43.164;27.786;2022-09-09T14:31:25;13.70;;;2.05;;
63087;SDS011;49173;43.164;27.786;2022-09-09T14:33:52;4.05;;;1.60;;
63087;SDS011;49173;43.164;27.786;2022-09-09T14:36:18;6.18;;;1.80;;
63087;SDS011;49173;43.164;27.786;2022-09-09T14:38:44;6.32;;;1.88;;
63087;SDS011;49173;43.164;27.786;2022-09-09T14:41:10;3.95;;;1.75;;
63087;SDS011;49173;43.164;27.786;2022-09-09T14:43:38;6.00;;;2.15;;
63087;SDS011;49173;43.164;27.786;2022-09-09T14:46:08;3.67;;;1.70;;
63087;SDS011;49173;43.164;27.786;2022-09-09T14:48:36;4.57;;;1.90;;
63087;SDS011;49173;43.164;27.786;2022-09-09T14:51:14;7.18;;;1.80;;
63087;SDS011;49173;43.164;27.786;2022-09-09T14:53:47;3.60;;;1.50;;
63087;SDS011;49173;43.164;27.786;2022-09-09T14:56:17;5.80;;;2.03;;
63087;SDS011;49173;43.164;27.786;2022-09-09T14:58:43;4.57;;;1.70;;
63087;SDS011;49173;43.164;27.786;2022-09-09T15:01:12;5.78;;;1.58;;
63087;SDS011;49173;43.164;27.786;2022-09-09T15:03:41;5.03;;;1.85;;
63087;SDS011;49173;43.164;27.786;2022-09-09T15:06:09;3.28;;;1.70;;
63087;SDS011;49173;43.164;27.786;2022-09-09T15:08:37;5.00;;;1.75;;
63087;SDS011;49173;43.164;27.786;2022-09-09T15:11:05;4.43;;;1.88;;
63087;SDS011;49173;43.164;27.786;2022-09-09T15:13:35;4.28;;;1.77;;
63087;SDS011;49173;43.164;27.786;2022-09-09T15:16:10;3.95;;;1.95;;
63087;SDS011;49173;43.164;27.786;2022-09-09T15:18:43;2.70;;;1.60;;
63087;SDS011;49173;43.164;27.786;2022-09-09T15:21:10;4.25;;;1.80;;
63087;SDS011;49173;43.164;27.786;2022-09-09T15:23:38;4.70;;;1.80;;
63087;SDS011;49173;43.164;27.786;2022-09-09T15:26:04;8.50;;;2.17;;
63087;SDS011;49173;43.164;27.786;2022-09-09T15:28:32;4.65;;;1.90;;
63087;SDS011;49173;43.164;27.786;2022-09-09T15:31:16;4.10;;;1.80;;
63087;SDS011;49173;43.164;27.786;2022-09-09T15:33:51;5.25;;;1.48;;
63087;SDS011;49173;43.164;27.786;2022-09-09T15:36:18;7.97;;;1.90;;
63087;SDS011;49173;43.164;27.786;2022-09-09T15:38:44;5.72;;;1.60;;
63087;SDS011;49173;43.164;27.786;2022-09-09T15:41:11;4.35;;;2.03;;
63087;SDS011;49173;43.164;27.786;2022-09-09T15:43:38;5.43;;;2.05;;
63087;SDS011;49173;43.164;27.786;2022-09-09T15:48:43;4.18;;;1.75;;
63087;SDS011;49173;43.164;27.786;2022-09-09T15:51:10;4.45;;;1.70;;
63087;SDS011;49173;43.164;27.786;2022-09-09T15:53:36;3.47;;;1.88;;
63087;SDS011;49173;43.164;27.786;2022-09-09T15:56:04;3.58;;;2.10;;
63087;SDS011;49173;43.164;27.786;2022-09-09T15:58:32;4.68;;;1.92;;
63087;SDS011;49173;43.164;27.786;2022-09-09T16:01:16;5.50;;;2.10;;
63087;SDS011;49173;43.164;27.786;2022-09-09T16:03:44;5.18;;;2.17;;
63087;SDS011;49173;43.164;27.786;2022-09-09T16:06:16;5.40;;;2.10;;
63087;SDS011;49173;43.164;27.786;2022-09-09T16:08:44;7.20;;;2.10;;
63087;SDS011;49173;43.164;27.786;2022-09-09T16:11:16;4.90;;;1.95;;
63087;SDS011;49173;43.164;27.786;2022-09-09T16:13:45;4.07;;;2.00;;
63087;SDS011;49173;43.164;27.786;2022-09-09T16:16:16;3.63;;;1.92;;
63087;SDS011;49173;43.164;27.786;2022-09-09T16:18:50;5.03;;;2.08;;
63087;SDS011;49173;43.164;27.786;2022-09-09T16:21:19;4.77;;;2.13;;
63087;SDS011;49173;43.164;27.786;2022-09-09T16:23:49;5.00;;;2.30;;
63087;SDS011;49173;43.164;27.786;2022-09-09T16:26:18;6.40;;;1.92;;
63087;SDS011;49173;43.164;27.786;2022-09-09T16:28:45;3.55;;;1.73;;
63087;SDS011;49173;43.164;27.786;2022-09-09T16:31:15;4.13;;;1.90;;
63087;SDS011;49173;43.164;27.786;2022-09-09T16:33:43;5.13;;;2.20;;
63087;SDS011;49173;43.164;27.786;2022-09-09T16:36:15;5.47;;;2.00;;
63087;SDS011;49173;43.164;27.786;2022-09-09T16:38:42;14.48;;;2.42;;
63087;SDS011;49173;43.164;27.786;2022-09-09T16:41:09;6.55;;;2.10;;
63087;SDS011;49173;43.164;27.786;2022-09-09T16:43:36;4.22;;;2.20;;
63087;SDS011;49173;43.164;27.786;2022-09-09T16:46:03;4.70;;;2.17;;
63087;SDS011;49173;43.164;27.786;2022-09-09T16:48:36;4.60;;;2.22;;
63087;SDS011;49173;43.164;27.786;2022-09-09T16:51:03;16.80;;;2.60;;
63087;SDS011;49173;43.164;27.786;2022-09-09T16:53:36;5.68;;;2.33;;
63087;SDS011;49173;43.164;27.786;2022-09-09T16:56:09;7.13;;;2.47;;
63087;SDS011;49173;43.164;27.786;2022-09-09T16:58:37;4.13;;;2.10;;
63087;SDS011;49173;43.164;27.786;2022-09-09T17:01:03;5.97;;;2.13;;
63087;SDS011;49173;43.164;27.786;2022-09-09T17:03:30;5.85;;;2.60;;
63087;SDS011;49173;43.164;27.786;2022-09-09T17:05:57;6.40;;;2.70;;
63087;SDS011;49173;43.164;27.786;2022-09-09T17:08:23;6.07;;;2.20;;
63087;SDS011;49173;43.164;27.786;2022-09-09T17:10:49;7.75;;;2.30;;
63087;SDS011;49173;43.164;27.786;2022-09-09T17:13:15;8.80;;;2.00;;
63087;SDS011;49173;43.164;27.786;2022-09-09T17:15:52;9.75;;;2.40;;
63087;SDS011;49173;43.164;27.786;2022-09-09T17:18:23;5.90;;;2.20;;